Del Mar Heights (610) Station Data

Red Flag Warning: No
Fire Weather Zone: 243
SDGE Region: North Coast
Lat/Lon: 32.964/-117.223

Observations

Time Wind Speed/Gust Temp(F) RH Fuel Moist Fuel Temp(F) Dewpt(F) Tmax(F) Tmin(F) Accum Precip 10-min Precip SL Press(mb)
4/29 11:50pm 148 4 G 6 64° 34% 5.9% 60.78° 35° 77.8° 56° - - 1017.0
4/29 11:40pm 153 4 G 6 65° 34% 5.8% 60.76° 35° 77.8° 56° - - 1017.0
4/29 11:30pm 153 3 G 5 65° 34% 5.9% 61.15° 36° 77.8° 56° - - 1017.0
4/29 11:20pm 153 3 G 6 65° 36% 5.9% 61.17° 37° 77.8° 56° - - 1017.0
4/29 11:10pm 147 4 G 6 65° 38% 5.9% 61.86° 39° 77.8° 56° - - 1017.0
4/29 11:00pm 163 3 G 4 65° 38% 5.9% 61.82° 39° 77.8° 56° - - 1017.0
4/29 10:50pm 161 3 G 4 65° 38% 5.9% 61.88° 39° 77.8° 56° - - 1017.0
4/29 10:40pm 168 2 G 4 65° 39% 5.9% 61.99° 40° 77.8° 56° - - 1017.0
4/29 10:30pm 156 3 G 4 65° 39% 5.8% 61.36° 39° 77.8° 56° - - 1017.0
4/29 10:20pm 159 3 G 4 64° 41% 5.8% 60.81° 40° 77.8° 56° - - 1017.0
4/29 10:10pm 151 2 G 4 65° 42% 5.8% 60.48° 41° 77.8° 56° - - 1017.0
4/29 10:00pm 90 0 G 2 65° 42% 5.8% 59.82° 41° 77.8° 56° - - 1017.0
4/29 9:50pm 117 1 G 2 65° 42% 5.7% 60.25° 41° 77.8° 56° - - 1017.0
4/29 9:40pm 163 1 G 2 65° 42% 5.7% 60.52° 41° 77.8° 56° - - 1017.0
4/29 9:30pm 233 0 G 1 65° 43% 5.6% 59.03° 42° 77.8° 56° - - 1017.0
4/29 9:20pm 288 1 G 3 65° 43% 5.6% 59.22° 42° 77.8° 56° - - 1017.0
4/29 9:10pm 331 3 G 5 65° 43% 4.9% 59.45° 42° 77.8° 56° - - 1017.0
4/29 9:00pm 324 3 G 6 65° 44% 4.9% 60.19° 42° 77.8° 56° - - 1017.0
4/29 8:50pm 311 5 G 9 65° 44% 4.9% 60.87° 43° 77.8° 56° - - 1017.0
4/29 8:40pm 313 8 G 10 65° 44% 4.9% 61.71° 43° 77.8° 56° - - 1017.0
4/29 8:30pm 307 7 G 10 65° 43% 4.8% 61.97° 42° 77.8° 56° - - 1016.0
4/29 8:20pm 317 7 G 11 65° 41% 4.8% 62.42° 41° 77.8° 56° - - 1016.0
4/29 8:10pm 315 6 G 11 66° 39% 4.7% 62.03° 40° 77.8° 56° - - 1016.0
4/29 8:00pm 319 8 G 12 66° 37% 4.7% 62.72° 39° 77.8° 56° - - 1016.0
4/29 7:50pm 313 6 G 10 67° 36% 4.7% 62.63° 39° 77.8° 56° - - 1016.0
4/29 7:40pm 320 6 G 9 67° 35% 4.7% 63.33° 39° 77.8° 56° - - 1015.0
4/29 7:30pm 333 7 G 11 68° 36% 4.8% 64.68° 40° 77.8° 56° - - 1015.0
4/29 7:20pm 341 7 G 12 68° 42% 4.8% 65.94° 44° 77.8° 56° - - 1015.0
4/29 7:10pm 326 6 G 10 68° 48% 4.8% 66.62° 48° 77.8° 56° - - 1015.0
4/29 7:00pm 313 10 G 13 68° 46% 4.8% 67.94° 47° 77.8° 56° - - 1015.0
4/29 6:50pm 314 10 G 14 69° 42% 4.8% 69.02° 45° 77.8° 56° - - 1015.0
4/29 6:40pm 315 10 G 15 70° 41% 4.8% 70.02° 45° 77.8° 56° - - 1015.0
4/29 6:30pm 305 8 G 11 70° 40% 4.7% 70.85° 44° 77.8° 56° - - 1015.0
4/29 6:20pm 296 7 G 11 70° 40% 4.7% 71.82° 45° 77.8° 56° - - 1014.0
4/29 6:10pm 293 6 G 10 70° 41% 4.8% 74.15° 46° 77.8° 56° - - 1014.0
4/29 6:00pm 286 8 G 12 70° 40% 4.8% 76.56° 45° 77.8° 56° - - 1014.0
4/29 5:50pm 284 8 G 12 70° 39% 4.9% 78.65° 45° 77.8° 56° - - 1014.0
4/29 5:40pm 282 9 G 13 71° 38% 4.9% 80.5° 44° 77.8° 56° - - 1014.0
4/29 5:30pm 290 9 G 14 72° 35% 4.9% 84.9° 43° 77.8° 56° - - 1014.0
4/29 5:20pm 300 9 G 13 72° 34% 4.9% 86.5° 42° 77.8° 56° - - 1014.0
4/29 5:10pm 296 9 G 13 72° 33% 4.9% 86.5° 42° 77.8° 56° - - 1014.0
4/29 5:00pm 290 10 G 15 72° 32% 4.9% 87.1° 40° 77.8° 56° - - 1014.0
4/29 4:50pm 291 10 G 19 72° 30% 4.9% 87.5° 39° 77.8° 56° - - 1014.0
4/29 4:40pm 307 11 G 16 72° 29% 4.9% 87.4° 38° 77.8° 56° - - 1014.0
4/29 4:30pm 300 10 G 16 73° 29% 4.9% 88.4° 39° 77.8° 56° - - 1014.0
4/29 4:20pm 301 9 G 15 73° 27% 5.7% 90.5° 38° 77.8° 56° - - 1014.0
4/29 4:10pm 296 12 G 20 72° 27% 4.9% 88.6° 36° 77.8° 56° - - 1014.0
4/29 4:00pm 306 13 G 20 74° 25% 5.7% 90.7° 36° 77.8° 56° - - 1014.0
4/29 3:50pm 302 10 G 18 75° 22% 5.7% 93° 34° 77.8° 56° - - 1014.0
4/29 3:40pm 282 13 G 20 74° 20% 5.7% 91.9° 30° 77.8° 56° - - 1014.0
4/29 3:30pm 300 12 G 19 74° 20% 5.8% 92.6° 31° 77.8° 56° - - 1014.0
4/29 3:20pm 290 13 G 19 74° 20% 5.8% 92.4° 30° 77.8° 56° - - 1014.0
4/29 3:10pm 289 12 G 20 74° 20% 5.8% 93.2° 31° 77.8° 56° - - 1014.0
4/29 3:00pm 287 12 G 18 74° 22% 5.8% 93.8° 33° 77.8° 56° - - 1014.0
4/29 2:50pm 295 13 G 18 73° 22% 5.9% 93.5° 32° 77.8° 56° - - 1014.0
4/29 2:40pm 300 14 G 21 72° 23% 5.9% 91.5° 32° 77.8° 56° - - 1014.0
4/29 2:30pm 287 14 G 21 72° 25% 5.9% 92.8° 34° 77.8° 56° - - 1014.0
4/29 2:20pm 295 13 G 21 73° 25% 5.9% 94.3° 35° 77.8° 56° - - 1014.0
4/29 2:10pm 290 14 G 19 72° 25% 6% 94.8° 35° 77.8° 56° - - 1014.0
4/29 2:00pm 278 13 G 18 73° 24% 6% 94.4° 34° 77.8° 56° - - 1014.0
4/29 1:50pm 287 15 G 21 73° 23% 6% 93.5° 32° 77.8° 56° - - 1014.0
4/29 1:40pm 287 12 G 18 74° 24% 6.1% 96.8° 34° 77.8° 56° - - 1014.0
4/29 1:30pm 301 10 G 17 74° 25% 6.2% 100° 36° 77.8° 56° - - 1014.0
4/29 1:20pm 292 11 G 16 73° 27% 6.2% 98.5° 37° 77.8° 56° - - 1014.0
4/29 1:10pm 264 11 G 15 72° 26% 6.3% 95.9° 36° 77.8° 56° - - 1014.0
4/29 1:00pm 292 10 G 17 73° 29% 6.4% 99.2° 39° 77.8° 56° - - 1014.0
4/29 12:50pm 276 12 G 19 72° 29% 6.4% 97.4° 38° 77.8° 56° - - 1014.0
4/29 12:40pm 272 12 G 17 73° 27% 6.4% 96.5° 37° 77.8° 56° - - 1014.0
4/29 12:30pm 245 13 G 18 74° 23% 6.3% 91.2° 34° 77.8° 56° - - 1014.0
4/29 12:20pm 270 13 G 18 75° 14% 6.4% 94° 23° 77.8° 56° - - 1014.0
4/29 12:10pm 272 13 G 19 75° 14% 6.4% 91.3° 23° 77.8° 56° - - 1014.0
4/29 12:00pm 270 11 G 18 75° 15% 6.4% 84° 24° 77.8° 56° - - 1014.0
4/29 11:50am 257 12 G 16 74° 16% 6.3% 85° 26° 77.8° 56° - - 1014.0
4/29 11:40am 268 12 G 17 74° 17% 6.7% 95.5° 27° 77.8° 56° - - 1014.0
4/29 11:30am 277 11 G 17 75° 14% 6.7% 96.5° 22° 77.8° 56° - - 1014.0
4/29 11:20am 294 11 G 19 75° 12% 6.8% 97.9° 20° 77.8° 56° - - 1014.0
4/29 11:10am 287 10 G 15 75° 14% 6.9% 98° 23° 77.8° 56° - - 1014.0
4/29 11:00am 284 14 G 18 73° 14% 6.9% 93.3° 21° 77.8° 56° - - 1014.0
4/29 10:50am 288 12 G 17 74° 16% 7% 93.6° 25° 77.8° 56° - - 1014.0
4/29 10:40am 304 9 G 14 76° 16% 7.2% 100.1° 27° 77.8° 56° - - 1014.0
4/29 10:30am 343 5 G 13 77° 15% 7.4% 99.9° 26° 77.8° 56° - - 1014.0
4/29 10:20am 4 3 G 7 76° 16% 7.5% 96.8° 26° 77.5° 56° - - 1014.0
4/29 10:10am 55 3 G 8 75° 16% 7.6% 93.9° 26° 76.4° 56° - - 1014.0
4/29 10:00am 16 4 G 8 74° 16% 7.7% 93.1° 25° 75.2° 56° - - 1014.0
4/29 9:50am 37 4 G 8 74° 16% 7.8% 90.3° 25° 75.1° 56° - - 1014.0
4/29 9:40am 46 3 G 7 74° 17% 7.9% 88.5° 27° 75.1° 56° - - 1014.0
4/29 9:30am 7 2 G 5 73° 18% 8.1% 89.7° 27° 73.4° 56° - - 1014.0
4/29 9:20am 342 3 G 5 71° 21% 8.3% 90° 29° 72.5° 56° - - 1014.0
4/29 9:10am 348 4 G 5 70° 22% 8.3% 88.3° 29° 71° 56° - - 1014.0
4/29 9:00am 339 3 G 5 70° 22% 8.5% 87.2° 29° 71° 56° - - 1014.0
4/29 8:50am 344 3 G 4 70° 22% 8.6% 84.5° 29° 71° 56° - - 1014.0
4/29 8:40am 1 2 G 3 70° 20% 8.7% 81.9° 27° 71° 56° - - 1013.0
4/29 8:30am 336 1 G 3 69° 20% 8.9% 80.4° 26° 70.2° 56° - - 1013.0
4/29 8:20am 25 2 G 3 68° 21% 8.9% 76.14° 27° 69° 56° - - 1013.0
4/29 8:10am 56 3 G 4 68° 21% 8.9% 72.08° 27° 69° 56° - - 1013.0
4/29 8:00am 66 2 G 4 68° 21% 9% 71.68° 26° 68.9° 56° - - 1013.0
4/29 7:50am 70 2 G 4 67° 21% 9.1% 69.94° 26° 68.5° 56° - - 1013.0
4/29 7:40am 89 2 G 4 66° 24% 9.2% 68.11° 28° 67° 56° - - 1013.0
4/29 7:30am 84 2 G 4 65° 25% 9.2% 66.48° 28° 66.1° 56° - - 1013.0
4/29 7:20am 64 2 G 3 65° 25% 9.3% 65.43° 28° 65.7° 56° - - 1013.0
4/29 7:10am 72 3 G 6 65° 22% 9.4% 65.19° 26° 65.7° 56° - - 1013.0
4/29 7:00am 96 4 G 6 65° 22% 9.5% 64.09° 25° 65.5° 56° - - 1012.0
4/29 6:50am 96 3 G 4 64° 25% 9.5% 62.28° 28° 64.4° 56° - - 1012.0
4/29 6:40am 101 2 G 4 63° 27% 9.6% 60.35° 28° 64° 56° - - 1012.0
4/29 6:30am 46 2 G 4 63° 28% 9.5% 58.41° 29° 63.6° 56° - - 1012.0
4/29 6:20am 32 3 G 4 62° 30% 9.4% 56.12° 31° 63.6° 56° - - 1012.0
4/29 6:10am 17 3 G 5 62° 31% 9.3% 54.55° 31° 63.6° 56° - - 1012.0
4/29 6:00am 38 3 G 5 62° 32% 9.4% 55.39° 32° 63.6° 56° - - 1012.0
4/29 5:50am 77 2 G 3 62° 35% 9.5% 56.59° 34° 63.6° 56° - - 1012.0
4/29 5:40am 84 2 G 4 63° 29% 9.6% 57.81° 30° 63.6° 56° - - 1011.0
4/29 5:30am 94 3 G 5 62° 35% 9.8% 58.2° 34° 63.6° 56° - - 1011.0
4/29 5:20am 82 3 G 5 62° 39% 9.9% 57.68° 37° 63.6° 56° - - 1011.0
4/29 5:10am 83 3 G 4 62° 39% 10% 57.82° 37° 63.6° 56° - - 1011.0
4/29 5:00am 90 3 G 5 62° 40% 10% 57.65° 37° 63.6° 56° - - 1011.0
4/29 4:50am 79 3 G 6 61° 46% 10.1% 57.12° 40° 63.6° 56° - - 1011.0
4/29 4:40am 74 2 G 6 62° 42% 10.2% 58.09° 39° 63.6° 56° - - 1011.0
4/29 4:30am 73 3 G 5 62° 47% 10.3% 57.82° 41° 63.6° 56° - - 1011.0
4/29 4:20am 68 4 G 9 62° 46% 10.4% 58.39° 41° 63.6° 56° - - 1011.0
4/29 4:10am 105 2 G 4 60° 56% 10.4% 55.92° 44° 62.4° 56° - - 1011.0
4/29 4:00am 89 2 G 4 59° 60% 10.5% 55.77° 45° 62.4° 56° - - 1011.0
4/29 3:50am 100 3 G 5 59° 61% 10.5% 55.52° 45° 62.4° 56° - - 1011.0
4/29 3:40am 73 2 G 5 59° 61% 10.5% 55.37° 46° 62.4° 56° - - 1010.0
4/29 3:30am 75 3 G 5 61° 56% 10.5% 55.19° 45° 62.4° 56° - - 1010.0
4/29 3:20am 30 2 G 4 60° 59% 10.4% 53.36° 46° 62.4° 56° - - 1010.0
4/29 3:10am 46 2 G 3 61° 55% 10.3% 53.58° 45° 62.4° 56° - - 1010.0
4/29 3:00am 23 2 G 3 60° 64% 10.3% 52.81° 47° 62.4° 56° - - 1010.0
4/29 2:50am 347 1 G 2 58° 69% 10.3% 53.25° 48° 62.4° 56° - - 1010.0
4/29 2:40am 37 1 G 3 59° 67% 10.2% 54.13° 48° 62.4° 56° - - 1010.0
4/29 2:30am 266 1 G 2 59° 67% 10.2% 54.76° 48° 62.4° 56° - - 1010.0
4/29 2:20am 154 2 G 5 60° 66% 10.2% 56.57° 48° 62.4° 56° - - 1010.0
4/29 2:10am 153 4 G 6 60° 66% 10.3% 57.46° 48° 62.4° 56° - - 1010.0
4/29 2:00am 124 4 G 6 59° 66% 10.3% 57.48° 48° 62.4° 56° - - 1010.0
4/29 1:50am 101 3 G 4 58° 70% 10.2% 55.65° 49° 62.4° 56° - - 1010.0
4/29 1:40am 83 2 G 4 58° 73% 10.2% 55.2° 49° 62.4° 56° - - 1010.0
4/29 1:30am 91 2 G 5 56° 77% 10.1% 54.16° 49° 62.4° 56° - - 1010.0
4/29 1:20am 51 2 G 4 57° 74% 10% 54.39° 49° 62.4° 56.6° - - 1010.0
4/29 1:10am 28 2 G 3 58° 73% 9.9% 53.78° 50° 62.4° 57.4° - - 1010.0
4/29 1:00am 24 1 G 2 59° 72% 9.8% 53.3° 50° 62.4° 58.2° - - 1010.0
4/29 12:50am 76 1 G 2 59° 71% 9.6% 53.96° 50° 62.4° 58.5° - - 1010.0
4/29 12:40am 117 0 G 1 59° 70% 9.7% 54.9° 50° 62.4° 58.9° - - 1010.0
4/29 12:30am 336 1 G 2 60° 70% 9.5% 53.92° 50° 62.4° 59.2° - - 1010.0
4/29 12:20am 333 1 G 2 60° 69% 9.5% 55.44° 50° 62.4° 59.5° - - 1010.0
4/29 12:10am 103 1 G 3 62° 66% 9.4% 56.33° 50° 62.4° 60.7° - - 1009.0
4/29 12:00am 139 1 G 2 62° 66% 9.4% 57.75° 50° 69.8° 56.3° - - 1009.0
4/28 11:50pm 234 2 G 3 61° 68% 9.4% 57.73° 50° 69.8° 56.3° - - 1009.0
4/28 11:40pm 301 2 G 3 61° 68% 9.3% 56.73° 50° 69.8° 56.3° - - 1009.0
4/28 11:30pm 171 1 G 3 62° 66% 9.3% 58.55° 50° 69.8° 56.3° - - 1009.0
4/28 11:20pm 138 1 G 2 62° 65% 9.2% 58.24° 50° 69.8° 56.3° - - 1009.0
4/28 11:10pm 128 2 G 3 63° 63% 9.2% 58.5° 50° 69.8° 56.3° - - 1009.0
4/28 11:00pm 119 2 G 2 63° 63% 9.1% 58.93° 50° 69.8° 56.3° - - 1009.0
4/28 10:50pm 74 1 G 2 63° 62% 9% 57.76° 50° 69.8° 56.3° - - 1009.0
4/28 10:40pm 103 1 G 2 63° 62% 9% 58.82° 50° 69.8° 56.3° - - 1009.0
4/28 10:30pm 121 2 G 2 63° 61% 9% 60.19° 50° 69.8° 56.3° - - 1009.0
4/28 10:20pm 132 1 G 2 63° 62% 9% 60.21° 50° 69.8° 56.3° - - 1009.0
4/28 10:10pm 132 2 G 4 63° 62% 8.9% 59.88° 50° 69.8° 56.3° - - 1009.0
4/28 10:00pm 119 3 G 5 63° 62% 8.9% 60.48° 50° 69.8° 56.3° - - 1009.0
4/28 9:50pm 117 4 G 5 63° 62% 8.9% 60.85° 50° 69.8° 56.3° - - 1009.0
4/28 9:40pm 106 4 G 5 64° 61% 8.9% 60.71° 50° 69.8° 56.3° - - 1008.0
4/28 9:30pm 110 4 G 5 64° 61% 8.9% 60.85° 50° 69.8° 56.3° - - 1008.0
4/28 9:20pm 115 3 G 4 64° 61% 8.8% 60.56° 50° 69.8° 56.3° - - 1008.0
4/28 9:10pm 135 3 G 4 64° 61% 8.8% 61.08° 50° 69.8° 56.3° - - 1008.0
4/28 9:00pm 128 4 G 6 64° 61% 8.7% 61.14° 50° 69.8° 56.3° - - 1008.0
4/28 8:50pm 124 3 G 4 64° 62% 8.7% 60.91° 51° 69.8° 56.3° - - 1008.0
4/28 8:40pm 151 1 G 3 64° 61% 8.6% 60.36° 51° 69.8° 56.3° - - 1008.0
4/28 8:30pm 323 1 G 2 64° 61% 8.5% 59.55° 51° 69.8° 56.3° - - 1008.0
4/28 8:20pm 288 0 G 1 65° 61% 8.4% 59.64° 51° 69.8° 56.3° - - 1008.0
4/28 8:10pm 292 2 G 5 65° 61% 8.4% 60.52° 51° 69.8° 56.3° - - 1008.0
4/28 8:00pm 314 3 G 5 65° 60% 8.3% 60.77° 51° 69.8° 56.3° - - 1007.0
4/28 7:50pm 334 2 G 4 65° 60% 8.3% 61.02° 50° 69.8° 56.3° - - 1007.0
4/28 7:40pm 312 3 G 6 65° 60% 8.3% 61.71° 51° 69.8° 56.3° - - 1007.0
4/28 7:30pm 314 3 G 5 65° 60% 8.2% 62.72° 51° 69.8° 56.3° - - 1007.0
4/28 7:20pm 18 2 G 5 65° 61% 8.3% 64.08° 51° 69.8° 56.3° - - 1007.0
4/28 7:10pm 312 3 G 4 66° 63% 8.2% 64.91° 53° 69.8° 56.3° - - 1007.0
4/28 7:00pm 318 5 G 8 66° 61% 8.2% 66.23° 52° 69.8° 56.3° - - 1007.0
4/28 6:50pm 322 5 G 7 66° 60% 8.2% 67.58° 52° 69.8° 56.3° - - 1007.0
4/28 6:40pm 312 7 G 10 67° 59% 8.2% 68.87° 52° 69.8° 56.3° - - 1007.0
4/28 6:30pm 318 6 G 9 67° 60% 8.3% 70.25° 53° 69.8° 56.3° - - 1007.0
4/28 6:20pm 332 5 G 10 66° 62% 8.2% 70.72° 53° 69.8° 56.3° - - 1007.0
4/28 6:10pm 317 6 G 10 66° 64% 8.3% 71.75° 54° 69.8° 56.3° - - 1007.0
4/28 6:00pm 309 4 G 7 66° 68% 8.2% 72.11° 55° 69.8° 56.3° - - 1007.0